メインページ
METAR-TAF:

METAR-TAF

空港 :

Pellston Regional Airport of Emmet County

Pellston, ミシガン州, アメリカ合衆国

緯度: 45-34-15N, 経度: 084-47-48W, 海抜: 220m

現時点の気象観測

当レポートは55分前の16:54(UTC)に作成
北西の風 10kt、最大17ktの突風を伴う
気温 24°C
湿度 54%
気圧 1015 hPa
視程: 16.1km
晴天

METAR: KPLN 211654Z AUTO 31010G17KT 10SM CLR 24/14 A2998 RMK AO2 SLP150 T02390144

時間: 13:49 (17:49 UTC)

予報

当レポートは29分前の17:20(UTC)に作成
予報は21日の 18時(UTC)から 22日の 18時(UTC)まで有効
北西の風 11kt、最大18ktの突風を伴う
視程: 10km
高度4000ftの雲はほとんどない
22日の 0100時(UTC)から
北/北西の風 8kt
視程: 10km
高度25000ftの雲は散在している
22日の 0400時(UTC)から
変向風 3kt
視程: 10km
高度18000ftの雲は散在している
22日の 0700時(UTC)から
変向風 3kt
視程: 10km
高度18000ftの千切れ雲あり
22日の 1400時(UTC)から
北/北西の風 10kt
視程: 10km
高度18000ftの雲は散在している

TAF: KPLN 211720Z 2118/2218 31011G18KT P6SM FEW040 FM220100 33008KT P6SM SCT250 FM220400 VRB03KT P6SM SCT180 FM220700 VRB03KT P6SM BKN180 FM221400 33010KT P6SM SCT180

4,000以上の空港の気象観測と天気予報(METAR報とTAF報)

利用可能な観測所は地図上に黄色い丸と赤い丸で示す。

丸の上にカーソルを重ねると観測所名を参照できる。

次にクリックすると気象観測と天気予報を参照できる。

マップの切り替え:黒色「×」印の緑ボタンをクリックして拡大、「-」印の緑ボタンをクリックして縮小、緑色の三角印をクリックして隣りの地図に切り替え


METAR-TAF: